sensor_id;sensor_type;location;lat;lon;timestamp;pressure;altitude;pressure_sealevel;temperature;humidity
76551;BME280;68768;53.156;18.164;2023-08-24T00:01:27;101418.85;;;21.03;57.46
76551;BME280;68768;53.156;18.164;2023-08-24T00:03:53;101424.90;;;20.94;57.83
76551;BME280;68768;53.156;18.164;2023-08-24T00:06:20;101428.89;;;20.83;58.11
76551;BME280;68768;53.156;18.164;2023-08-24T00:08:46;101423.48;;;20.70;58.62
76551;BME280;68768;53.156;18.164;2023-08-24T00:11:13;101424.92;;;20.57;58.97
76551;BME280;68768;53.156;18.164;2023-08-24T00:13:44;101423.52;;;20.49;59.04
76551;BME280;68768;53.156;18.164;2023-08-24T00:16:16;101428.14;;;20.42;59.23
76551;BME280;68768;53.156;18.164;2023-08-24T00:18:42;101424.48;;;20.37;59.36
76551;BME280;68768;53.156;18.164;2023-08-24T00:21:08;101422.33;;;20.34;59.32
76551;BME280;68768;53.156;18.164;2023-08-24T00:23:35;101422.80;;;20.30;59.56
76551;BME280;68768;53.156;18.164;2023-08-24T00:26:01;101422.44;;;20.27;59.73
76551;BME280;68768;53.156;18.164;2023-08-24T00:28:27;101421.65;;;20.23;59.90
76551;BME280;68768;53.156;18.164;2023-08-24T00:30:54;101418.31;;;20.19;60.19
76551;BME280;68768;53.156;18.164;2023-08-24T00:33:20;101427.56;;;20.13;60.61
76551;BME280;68768;53.156;18.164;2023-08-24T00:35:46;101431.58;;;20.06;60.74
76551;BME280;68768;53.156;18.164;2023-08-24T00:38:13;101429.43;;;19.98;60.93
76551;BME280;68768;53.156;18.164;2023-08-24T00:40:42;101436.73;;;19.94;61.02
76551;BME280;68768;53.156;18.164;2023-08-24T00:43:08;101433.53;;;19.88;61.19
76551;BME280;68768;53.156;18.164;2023-08-24T00:45:34;101432.55;;;19.83;61.25
76551;BME280;68768;53.156;18.164;2023-08-24T00:48:02;101434.00;;;19.81;61.50
76551;BME280;68768;53.156;18.164;2023-08-24T00:50:29;101432.13;;;19.76;61.74
76551;BME280;68768;53.156;18.164;2023-08-24T00:52:56;101433.54;;;19.71;61.84
76551;BME280;68768;53.156;18.164;2023-08-24T00:55:22;101435.97;;;19.70;61.98
76551;BME280;68768;53.156;18.164;2023-08-24T00:57:49;101436.17;;;19.64;62.31
76551;BME280;68768;53.156;18.164;2023-08-24T01:00:16;101441.71;;;19.59;62.65
76551;BME280;68768;53.156;18.164;2023-08-24T01:02:43;101441.13;;;19.54;62.78
76551;BME280;68768;53.156;18.164;2023-08-24T01:05:10;101448.23;;;19.50;62.81
76551;BME280;68768;53.156;18.164;2023-08-24T01:07:38;101445.32;;;19.47;63.01
76551;BME280;68768;53.156;18.164;2023-08-24T01:10:08;101449.89;;;19.43;63.23
76551;BME280;68768;53.156;18.164;2023-08-24T01:15:19;101448.48;;;19.37;63.47
76551;BME280;68768;53.156;18.164;2023-08-24T01:17:50;101448.27;;;19.32;63.83
76551;BME280;68768;53.156;18.164;2023-08-24T01:20:19;101449.74;;;19.29;63.64
76551;BME280;68768;53.156;18.164;2023-08-24T01:22:55;101453.40;;;19.28;63.55
76551;BME280;68768;53.156;18.164;2023-08-24T01:25:34;101451.27;;;19.28;63.63
76551;BME280;68768;53.156;18.164;2023-08-24T01:28:05;101454.00;;;19.30;63.66
76551;BME280;68768;53.156;18.164;2023-08-24T01:30:34;101450.74;;;19.30;63.64
76551;BME280;68768;53.156;18.164;2023-08-24T01:33:04;101446.64;;;19.33;63.57
76551;BME280;68768;53.156;18.164;2023-08-24T01:35:31;101449.83;;;19.36;63.70
76551;BME280;68768;53.156;18.164;2023-08-24T01:37:58;101448.37;;;19.39;63.50
76551;BME280;68768;53.156;18.164;2023-08-24T01:43:07;101446.20;;;19.39;63.40
76551;BME280;68768;53.156;18.164;2023-08-24T01:45:33;101443.11;;;19.37;63.55
76551;BME280;68768;53.156;18.164;2023-08-24T01:48:02;101449.14;;;19.35;63.46
76551;BME280;68768;53.156;18.164;2023-08-24T01:50:34;101451.98;;;19.36;63.51
76551;BME280;68768;53.156;18.164;2023-08-24T01:53:00;101445.02;;;19.35;63.50
76551;BME280;68768;53.156;18.164;2023-08-24T01:55:27;101447.17;;;19.35;63.33
76551;BME280;68768;53.156;18.164;2023-08-24T01:57:55;101445.77;;;19.35;63.49
76551;BME280;68768;53.156;18.164;2023-08-24T02:00:22;101441.41;;;19.33;63.53
76551;BME280;68768;53.156;18.164;2023-08-24T02:02:48;101446.10;;;19.33;63.62
76551;BME280;68768;53.156;18.164;2023-08-24T02:05:14;101447.63;;;19.31;63.62
76551;BME280;68768;53.156;18.164;2023-08-24T02:07:41;101448.59;;;19.27;63.85
76551;BME280;68768;53.156;18.164;2023-08-24T02:10:07;101447.45;;;19.23;63.64
76551;BME280;68768;53.156;18.164;2023-08-24T02:12:33;101447.94;;;19.21;63.75
76551;BME280;68768;53.156;18.164;2023-08-24T02:14:59;101449.50;;;19.19;63.88
76551;BME280;68768;53.156;18.164;2023-08-24T02:17:26;101450.25;;;19.15;63.94
76551;BME280;68768;53.156;18.164;2023-08-24T02:19:52;101447.98;;;19.11;63.91
76551;BME280;68768;53.156;18.164;2023-08-24T02:22:19;101447.59;;;19.08;63.94
76551;BME280;68768;53.156;18.164;2023-08-24T02:24:45;101444.52;;;19.06;64.00
76551;BME280;68768;53.156;18.164;2023-08-24T02:27:12;101441.63;;;19.00;64.19
76551;BME280;68768;53.156;18.164;2023-08-24T02:29:39;101438.43;;;18.96;64.13
76551;BME280;68768;53.156;18.164;2023-08-24T02:32:06;101437.81;;;18.92;64.21
76551;BME280;68768;53.156;18.164;2023-08-24T02:34:32;101440.82;;;18.87;64.32
76551;BME280;68768;53.156;18.164;2023-08-24T02:36:58;101444.31;;;18.83;64.46
76551;BME280;68768;53.156;18.164;2023-08-24T02:39:25;101439.17;;;18.73;64.57
76551;BME280;68768;53.156;18.164;2023-08-24T02:41:51;101437.60;;;18.66;64.75
76551;BME280;68768;53.156;18.164;2023-08-24T02:44:18;101439.86;;;18.56;64.82
76551;BME280;68768;53.156;18.164;2023-08-24T02:46:44;101444.17;;;18.46;64.89
76551;BME280;68768;53.156;18.164;2023-08-24T02:49:11;101445.34;;;18.42;65.19
76551;BME280;68768;53.156;18.164;2023-08-24T02:51:37;101444.80;;;18.39;65.21
76551;BME280;68768;53.156;18.164;2023-08-24T02:54:04;101448.38;;;18.36;65.55
76551;BME280;68768;53.156;18.164;2023-08-24T02:56:30;101447.03;;;18.34;65.58
76551;BME280;68768;53.156;18.164;2023-08-24T02:58:56;101443.56;;;18.32;65.59
76551;BME280;68768;53.156;18.164;2023-08-24T03:01:24;101446.14;;;18.31;65.81
76551;BME280;68768;53.156;18.164;2023-08-24T03:03:50;101446.59;;;18.30;65.90
76551;BME280;68768;53.156;18.164;2023-08-24T03:06:16;101444.13;;;18.29;65.99
76551;BME280;68768;53.156;18.164;2023-08-24T03:08:43;101439.59;;;18.27;66.10
76551;BME280;68768;53.156;18.164;2023-08-24T03:11:11;101442.67;;;18.26;66.23
76551;BME280;68768;53.156;18.164;2023-08-24T03:13:37;101438.71;;;18.26;66.45
76551;BME280;68768;53.156;18.164;2023-08-24T03:16:05;101436.66;;;18.27;66.54
76551;BME280;68768;53.156;18.164;2023-08-24T03:18:32;101433.22;;;18.28;66.40
76551;BME280;68768;53.156;18.164;2023-08-24T03:20:58;101433.33;;;18.29;66.61
76551;BME280;68768;53.156;18.164;2023-08-24T03:23:25;101441.16;;;18.33;66.91
76551;BME280;68768;53.156;18.164;2023-08-24T03:25:51;101443.86;;;18.36;66.67
76551;BME280;68768;53.156;18.164;2023-08-24T03:28:18;101445.61;;;18.41;66.70
76551;BME280;68768;53.156;18.164;2023-08-24T03:30:50;101448.04;;;18.45;66.57
76551;BME280;68768;53.156;18.164;2023-08-24T03:33:16;101447.11;;;18.49;66.75
76551;BME280;68768;53.156;18.164;2023-08-24T03:35:43;101442.01;;;18.50;66.53
76551;BME280;68768;53.156;18.164;2023-08-24T03:38:10;101439.50;;;18.50;66.58
76551;BME280;68768;53.156;18.164;2023-08-24T03:40:37;101442.63;;;18.48;66.75
76551;BME280;68768;53.156;18.164;2023-08-24T03:43:04;101440.60;;;18.49;66.68
76551;BME280;68768;53.156;18.164;2023-08-24T03:45:30;101431.80;;;18.49;66.75
76551;BME280;68768;53.156;18.164;2023-08-24T03:47:57;101435.57;;;18.52;66.64
76551;BME280;68768;53.156;18.164;2023-08-24T03:50:23;101433.14;;;18.53;66.56
76551;BME280;68768;53.156;18.164;2023-08-24T03:52:51;101430.60;;;18.54;66.63
76551;BME280;68768;53.156;18.164;2023-08-24T03:55:17;101435.37;;;18.55;66.71
76551;BME280;68768;53.156;18.164;2023-08-24T03:57:44;101437.77;;;18.58;66.55
76551;BME280;68768;53.156;18.164;2023-08-24T04:00:11;101437.09;;;18.60;66.52
76551;BME280;68768;53.156;18.164;2023-08-24T04:02:41;101430.88;;;18.62;66.53
76551;BME280;68768;53.156;18.164;2023-08-24T04:05:09;101432.06;;;18.63;66.54
76551;BME280;68768;53.156;18.164;2023-08-24T04:07:35;101436.15;;;18.64;66.78
76551;BME280;68768;53.156;18.164;2023-08-24T04:10:06;101435.98;;;18.63;66.66
76551;BME280;68768;53.156;18.164;2023-08-24T04:12:32;101441.00;;;18.67;66.53
76551;BME280;68768;53.156;18.164;2023-08-24T04:14:59;101443.39;;;18.66;66.68
76551;BME280;68768;53.156;18.164;2023-08-24T04:17:25;101444.67;;;18.65;66.66
76551;BME280;68768;53.156;18.164;2023-08-24T04:19:52;101452.77;;;18.65;66.58
76551;BME280;68768;53.156;18.164;2023-08-24T04:22:19;101455.83;;;18.65;66.67
76551;BME280;68768;53.156;18.164;2023-08-24T04:24:45;101459.98;;;18.65;66.73
76551;BME280;68768;53.156;18.164;2023-08-24T04:27:11;101463.11;;;18.64;66.63
76551;BME280;68768;53.156;18.164;2023-08-24T04:29:38;101461.67;;;18.64;66.73
76551;BME280;68768;53.156;18.164;2023-08-24T04:32:04;101459.98;;;18.65;66.63
76551;BME280;68768;53.156;18.164;2023-08-24T04:34:30;101462.19;;;18.67;66.75
76551;BME280;68768;53.156;18.164;2023-08-24T04:36:56;101463.23;;;18.68;66.52
76551;BME280;68768;53.156;18.164;2023-08-24T04:39:23;101466.23;;;18.66;66.41
76551;BME280;68768;53.156;18.164;2023-08-24T04:41:50;101464.89;;;18.67;66.37
76551;BME280;68768;53.156;18.164;2023-08-24T04:44:16;101460.47;;;18.69;66.49
76551;BME280;68768;53.156;18.164;2023-08-24T04:46:43;101459.93;;;18.69;66.40
76551;BME280;68768;53.156;18.164;2023-08-24T04:49:09;101462.71;;;18.70;66.29
76551;BME280;68768;53.156;18.164;2023-08-24T04:51:36;101457.88;;;18.76;66.43
76551;BME280;68768;53.156;18.164;2023-08-24T04:54:02;101455.65;;;18.80;66.29
76551;BME280;68768;53.156;18.164;2023-08-24T04:56:28;101450.02;;;18.84;66.11
76551;BME280;68768;53.156;18.164;2023-08-24T04:58:58;101450.71;;;18.87;65.95
76551;BME280;68768;53.156;18.164;2023-08-24T05:01:29;101455.33;;;18.94;66.02
76551;BME280;68768;53.156;18.164;2023-08-24T05:03:58;101456.02;;;19.00;65.86
76551;BME280;68768;53.156;18.164;2023-08-24T05:06:24;101453.63;;;19.04;65.82
76551;BME280;68768;53.156;18.164;2023-08-24T05:08:51;101457.29;;;19.18;66.02
76551;BME280;68768;53.156;18.164;2023-08-24T05:11:19;101460.15;;;19.44;65.54
76551;BME280;68768;53.156;18.164;2023-08-24T05:13:46;101458.52;;;19.64;65.01
76551;BME280;68768;53.156;18.164;2023-08-24T05:16:13;101460.17;;;20.02;64.87
76551;BME280;68768;53.156;18.164;2023-08-24T05:18:39;101462.10;;;20.49;63.80
76551;BME280;68768;53.156;18.164;2023-08-24T05:21:06;101465.36;;;20.88;63.28
76551;BME280;68768;53.156;18.164;2023-08-24T05:23:33;101463.83;;;21.33;62.48
76551;BME280;68768;53.156;18.164;2023-08-24T05:26:00;101467.36;;;21.79;61.29
76551;BME280;68768;53.156;18.164;2023-08-24T05:28:29;101467.13;;;22.04;60.46
76551;BME280;68768;53.156;18.164;2023-08-24T05:30:56;101465.86;;;22.12;59.97
76551;BME280;68768;53.156;18.164;2023-08-24T05:33:24;101462.71;;;22.17;60.22
76551;BME280;68768;53.156;18.164;2023-08-24T05:35:51;101461.64;;;22.27;60.06
76551;BME280;68768;53.156;18.164;2023-08-24T05:38:17;101467.79;;;22.31;59.90
76551;BME280;68768;53.156;18.164;2023-08-24T05:40:46;101468.71;;;22.26;59.70
76551;BME280;68768;53.156;18.164;2023-08-24T05:43:13;101469.72;;;22.28;60.05
76551;BME280;68768;53.156;18.164;2023-08-24T05:45:40;101467.61;;;22.27;59.29
76551;BME280;68768;53.156;18.164;2023-08-24T05:48:07;101469.33;;;22.16;59.18
76551;BME280;68768;53.156;18.164;2023-08-24T05:50:33;101473.08;;;22.07;59.14
76551;BME280;68768;53.156;18.164;2023-08-24T05:53:00;101471.83;;;21.99;59.12
76551;BME280;68768;53.156;18.164;2023-08-24T05:55:26;101470.49;;;21.97;59.07
76551;BME280;68768;53.156;18.164;2023-08-24T05:57:53;101474.37;;;21.99;58.74
76551;BME280;68768;53.156;18.164;2023-08-24T06:00:19;101469.76;;;21.98;58.12
76551;BME280;68768;53.156;18.164;2023-08-24T06:02:46;101470.96;;;21.93;57.95
76551;BME280;68768;53.156;18.164;2023-08-24T06:05:12;101470.20;;;21.94;58.00
76551;BME280;68768;53.156;18.164;2023-08-24T06:07:39;101470.19;;;21.99;58.12
76551;BME280;68768;53.156;18.164;2023-08-24T06:10:05;101470.91;;;22.01;57.65
76551;BME280;68768;53.156;18.164;2023-08-24T06:12:32;101471.48;;;22.04;57.89
76551;BME280;68768;53.156;18.164;2023-08-24T06:14:59;101474.11;;;22.08;57.61
76551;BME280;68768;53.156;18.164;2023-08-24T06:17:28;101471.95;;;22.10;57.38
76551;BME280;68768;53.156;18.164;2023-08-24T06:19:54;101471.27;;;22.14;57.60
76551;BME280;68768;53.156;18.164;2023-08-24T06:22:20;101471.08;;;22.17;57.14
76551;BME280;68768;53.156;18.164;2023-08-24T06:24:47;101473.53;;;22.18;57.14
76551;BME280;68768;53.156;18.164;2023-08-24T06:27:13;101476.57;;;22.18;56.97
76551;BME280;68768;53.156;18.164;2023-08-24T06:29:42;101473.56;;;22.19;57.14
76551;BME280;68768;53.156;18.164;2023-08-24T06:32:08;101470.81;;;22.20;56.99
76551;BME280;68768;53.156;18.164;2023-08-24T06:34:34;101469.41;;;22.24;57.12
76551;BME280;68768;53.156;18.164;2023-08-24T06:37:01;101466.93;;;22.33;56.82
76551;BME280;68768;53.156;18.164;2023-08-24T06:39:29;101470.74;;;22.38;56.28
76551;BME280;68768;53.156;18.164;2023-08-24T06:41:55;101470.99;;;22.39;56.31
76551;BME280;68768;53.156;18.164;2023-08-24T06:44:25;101470.05;;;22.42;56.12
76551;BME280;68768;53.156;18.164;2023-08-24T06:46:51;101471.55;;;22.46;56.09
76551;BME280;68768;53.156;18.164;2023-08-24T06:49:17;101475.22;;;22.57;55.89
76551;BME280;68768;53.156;18.164;2023-08-24T06:51:44;101479.02;;;22.66;55.27
76551;BME280;68768;53.156;18.164;2023-08-24T06:54:10;101479.06;;;22.73;55.33
76551;BME280;68768;53.156;18.164;2023-08-24T06:56:37;101479.75;;;22.88;55.39
76551;BME280;68768;53.156;18.164;2023-08-24T06:59:03;101474.77;;;23.07;55.45
76551;BME280;68768;53.156;18.164;2023-08-24T07:01:30;101477.93;;;23.24;55.08
76551;BME280;68768;53.156;18.164;2023-08-24T07:03:57;101480.59;;;23.39;54.62
76551;BME280;68768;53.156;18.164;2023-08-24T07:06:24;101478.05;;;23.51;54.17
76551;BME280;68768;53.156;18.164;2023-08-24T07:08:50;101483.38;;;23.63;54.35
76551;BME280;68768;53.156;18.164;2023-08-24T07:11:17;101477.92;;;23.79;53.78
76551;BME280;68768;53.156;18.164;2023-08-24T07:13:43;101478.15;;;23.94;53.31
76551;BME280;68768;53.156;18.164;2023-08-24T07:16:09;101480.98;;;24.07;53.00
76551;BME280;68768;53.156;18.164;2023-08-24T07:18:36;101484.71;;;24.22;52.50
76551;BME280;68768;53.156;18.164;2023-08-24T07:21:02;101486.16;;;24.45;52.52
76551;BME280;68768;53.156;18.164;2023-08-24T07:23:28;101487.66;;;24.77;52.10
76551;BME280;68768;53.156;18.164;2023-08-24T07:25:55;101490.73;;;25.11;51.63
76551;BME280;68768;53.156;18.164;2023-08-24T07:28:21;101493.14;;;25.33;50.81
76551;BME280;68768;53.156;18.164;2023-08-24T07:30:48;101487.88;;;25.37;49.50
76551;BME280;68768;53.156;18.164;2023-08-24T07:33:14;101484.51;;;25.34;50.16
76551;BME280;68768;53.156;18.164;2023-08-24T07:35:41;101490.17;;;25.48;49.68
76551;BME280;68768;53.156;18.164;2023-08-24T07:38:07;101488.69;;;25.50;48.99
76551;BME280;68768;53.156;18.164;2023-08-24T07:40:34;101487.64;;;25.40;49.00
76551;BME280;68768;53.156;18.164;2023-08-24T07:43:00;101491.22;;;25.34;48.42
76551;BME280;68768;53.156;18.164;2023-08-24T07:45:26;101493.20;;;25.22;48.67
76551;BME280;68768;53.156;18.164;2023-08-24T07:47:53;101493.73;;;25.10;48.32
76551;BME280;68768;53.156;18.164;2023-08-24T07:50:20;101490.30;;;24.95;48.24
76551;BME280;68768;53.156;18.164;2023-08-24T07:52:48;101492.30;;;24.84;48.35
76551;BME280;68768;53.156;18.164;2023-08-24T07:55:15;101491.45;;;24.73;48.23
76551;BME280;68768;53.156;18.164;2023-08-24T07:57:42;101490.11;;;24.65;48.79
76551;BME280;68768;53.156;18.164;2023-08-24T08:00:09;101496.70;;;24.64;47.90
76551;BME280;68768;53.156;18.164;2023-08-24T08:02:41;101491.88;;;24.62;48.42
76551;BME280;68768;53.156;18.164;2023-08-24T08:05:08;101489.55;;;24.65;48.12
76551;BME280;68768;53.156;18.164;2023-08-24T08:07:36;101492.24;;;24.72;48.48
76551;BME280;68768;53.156;18.164;2023-08-24T08:10:04;101494.52;;;24.79;48.05
76551;BME280;68768;53.156;18.164;2023-08-24T08:12:30;101497.96;;;24.88;47.91
76551;BME280;68768;53.156;18.164;2023-08-24T08:14:58;101494.63;;;24.97;47.70
76551;BME280;68768;53.156;18.164;2023-08-24T08:17:24;101493.15;;;25.12;48.20
76551;BME280;68768;53.156;18.164;2023-08-24T08:19:54;101493.98;;;25.27;46.94
76551;BME280;68768;53.156;18.164;2023-08-24T08:22:21;101495.82;;;25.36;47.53
76551;BME280;68768;53.156;18.164;2023-08-24T08:24:47;101497.40;;;25.46;47.11
76551;BME280;68768;53.156;18.164;2023-08-24T08:27:14;101498.25;;;25.51;46.79
76551;BME280;68768;53.156;18.164;2023-08-24T08:29:40;101493.05;;;25.56;46.79
76551;BME280;68768;53.156;18.164;2023-08-24T08:32:07;101490.54;;;25.60;47.23
76551;BME280;68768;53.156;18.164;2023-08-24T08:34:33;101493.12;;;25.70;46.76
76551;BME280;68768;53.156;18.164;2023-08-24T08:36:59;101493.20;;;25.77;46.41
76551;BME280;68768;53.156;18.164;2023-08-24T08:39:26;101490.86;;;25.85;46.58
76551;BME280;68768;53.156;18.164;2023-08-24T08:41:52;101495.36;;;26.01;46.47
76551;BME280;68768;53.156;18.164;2023-08-24T08:44:19;101492.30;;;26.19;46.02
76551;BME280;68768;53.156;18.164;2023-08-24T08:46:47;101490.55;;;26.34;45.51
76551;BME280;68768;53.156;18.164;2023-08-24T08:49:17;101486.95;;;26.44;45.39
76551;BME280;68768;53.156;18.164;2023-08-24T08:51:45;101487.88;;;26.55;45.01
76551;BME280;68768;53.156;18.164;2023-08-24T08:54:12;101486.66;;;26.68;44.99
76551;BME280;68768;53.156;18.164;2023-08-24T08:56:38;101489.19;;;26.80;44.56
76551;BME280;68768;53.156;18.164;2023-08-24T08:59:07;101490.60;;;26.92;44.27
76551;BME280;68768;53.156;18.164;2023-08-24T09:01:34;101489.95;;;27.04;43.59
76551;BME280;68768;53.156;18.164;2023-08-24T09:04:01;101492.69;;;27.14;44.13
76551;BME280;68768;53.156;18.164;2023-08-24T09:06:28;101492.02;;;27.25;43.21
76551;BME280;68768;53.156;18.164;2023-08-24T09:08:56;101491.69;;;27.34;43.18
76551;BME280;68768;53.156;18.164;2023-08-24T09:11:22;101491.49;;;27.41;42.81
76551;BME280;68768;53.156;18.164;2023-08-24T09:13:49;101492.10;;;27.50;42.75
76551;BME280;68768;53.156;18.164;2023-08-24T09:16:16;101489.94;;;27.53;42.23
76551;BME280;68768;53.156;18.164;2023-08-24T09:18:45;101484.81;;;27.54;41.97
76551;BME280;68768;53.156;18.164;2023-08-24T09:21:15;101488.98;;;27.60;41.87
76551;BME280;68768;53.156;18.164;2023-08-24T09:23:53;101487.94;;;27.65;41.84
76551;BME280;68768;53.156;18.164;2023-08-24T09:26:36;101483.98;;;27.71;41.73
76551;BME280;68768;53.156;18.164;2023-08-24T09:29:13;101478.52;;;27.73;41.53
76551;BME280;68768;53.156;18.164;2023-08-24T09:31:40;101476.11;;;27.79;41.69
76551;BME280;68768;53.156;18.164;2023-08-24T09:34:10;101472.59;;;27.83;41.10
76551;BME280;68768;53.156;18.164;2023-08-24T09:36:38;101471.38;;;27.82;40.35
76551;BME280;68768;53.156;18.164;2023-08-24T09:39:05;101469.85;;;27.83;40.82
76551;BME280;68768;53.156;18.164;2023-08-24T09:41:40;101471.88;;;27.96;40.81
76551;BME280;68768;53.156;18.164;2023-08-24T09:44:07;101469.06;;;28.11;40.62
76551;BME280;68768;53.156;18.164;2023-08-24T09:46:39;101467.35;;;28.14;39.33
76551;BME280;68768;53.156;18.164;2023-08-24T09:49:06;101463.34;;;28.12;40.11
76551;BME280;68768;53.156;18.164;2023-08-24T09:51:34;101470.89;;;28.19;39.84
76551;BME280;68768;53.156;18.164;2023-08-24T09:54:11;101469.47;;;28.22;39.55
76551;BME280;68768;53.156;18.164;2023-08-24T09:56:38;101469.95;;;28.30;39.51
76551;BME280;68768;53.156;18.164;2023-08-24T09:59:16;101468.58;;;28.40;38.95
76551;BME280;68768;53.156;18.164;2023-08-24T10:01:49;101464.93;;;28.50;38.53
76551;BME280;68768;53.156;18.164;2023-08-24T10:04:25;101464.55;;;28.58;37.78
76551;BME280;68768;53.156;18.164;2023-08-24T10:07:06;101461.14;;;28.46;38.19
76551;BME280;68768;53.156;18.164;2023-08-24T10:10:02;101454.93;;;28.44;37.88
76551;BME280;68768;53.156;18.164;2023-08-24T10:12:32;101457.44;;;28.52;38.76
76551;BME280;68768;53.156;18.164;2023-08-24T10:15:02;101450.93;;;28.69;38.65
76551;BME280;68768;53.156;18.164;2023-08-24T10:17:37;101448.43;;;28.88;38.53
76551;BME280;68768;53.156;18.164;2023-08-24T10:20:06;101443.80;;;28.94;38.20
76551;BME280;68768;53.156;18.164;2023-08-24T10:22:35;101441.91;;;28.88;37.36
76551;BME280;68768;53.156;18.164;2023-08-24T10:25:02;101436.55;;;28.71;37.43
76551;BME280;68768;53.156;18.164;2023-08-24T10:27:29;101437.71;;;28.61;38.08
76551;BME280;68768;53.156;18.164;2023-08-24T10:29:56;101433.74;;;28.57;37.90
76551;BME280;68768;53.156;18.164;2023-08-24T10:32:25;101430.46;;;28.57;38.24
76551;BME280;68768;53.156;18.164;2023-08-24T10:34:53;101428.66;;;28.55;38.22
76551;BME280;68768;53.156;18.164;2023-08-24T10:37:26;101432.70;;;28.52;38.08
76551;BME280;68768;53.156;18.164;2023-08-24T10:39:53;101431.44;;;28.49;38.14
76551;BME280;68768;53.156;18.164;2023-08-24T10:42:20;101430.32;;;28.42;38.50
76551;BME280;68768;53.156;18.164;2023-08-24T10:44:49;101426.60;;;28.39;38.19
76551;BME280;68768;53.156;18.164;2023-08-24T10:47:23;101415.55;;;28.32;37.75
76551;BME280;68768;53.156;18.164;2023-08-24T10:52:31;101413.60;;;28.00;38.08
76551;BME280;68768;53.156;18.164;2023-08-24T10:55:03;101409.95;;;27.82;38.34
76551;BME280;68768;53.156;18.164;2023-08-24T10:57:38;101403.07;;;27.62;38.55
76551;BME280;68768;53.156;18.164;2023-08-24T11:02:47;101401.98;;;27.56;39.28
76551;BME280;68768;53.156;18.164;2023-08-24T11:07:50;101397.44;;;27.69;38.93
76551;BME280;68768;53.156;18.164;2023-08-24T11:10:17;101401.48;;;27.70;39.05
76551;BME280;68768;53.156;18.164;2023-08-24T11:13:06;101394.42;;;27.68;39.18
76551;BME280;68768;53.156;18.164;2023-08-24T11:15:34;101386.67;;;27.58;38.81
76551;BME280;68768;53.156;18.164;2023-08-24T11:18:20;101389.27;;;27.41;38.86
76551;BME280;68768;53.156;18.164;2023-08-24T11:20:56;101397.01;;;27.18;39.26
76551;BME280;68768;53.156;18.164;2023-08-24T11:23:25;101395.19;;;27.04;39.49
76551;BME280;68768;53.156;18.164;2023-08-24T11:25:53;101393.42;;;26.91;39.60
76551;BME280;68768;53.156;18.164;2023-08-24T11:28:27;101393.34;;;26.88;40.01
76551;BME280;68768;53.156;18.164;2023-08-24T11:30:55;101391.23;;;26.85;40.08
76551;BME280;68768;53.156;18.164;2023-08-24T11:33:32;101390.15;;;26.83;39.85
76551;BME280;68768;53.156;18.164;2023-08-24T11:36:00;101380.12;;;26.79;40.04
76551;BME280;68768;53.156;18.164;2023-08-24T11:41:11;101378.92;;;26.73;40.56
76551;BME280;68768;53.156;18.164;2023-08-24T11:43:38;101374.82;;;26.70;40.05
76551;BME280;68768;53.156;18.164;2023-08-24T11:46:05;101374.58;;;26.63;40.39
76551;BME280;68768;53.156;18.164;2023-08-24T11:48:31;101375.27;;;26.62;40.41
76551;BME280;68768;53.156;18.164;2023-08-24T11:50:58;101371.56;;;26.65;40.69
76551;BME280;68768;53.156;18.164;2023-08-24T11:53:26;101368.01;;;26.71;40.85
76551;BME280;68768;53.156;18.164;2023-08-24T11:55:53;101368.73;;;26.77;40.52
76551;BME280;68768;53.156;18.164;2023-08-24T11:58:19;101364.44;;;26.78;40.61
76551;BME280;68768;53.156;18.164;2023-08-24T12:00:46;101361.37;;;26.81;40.63
76551;BME280;68768;53.156;18.164;2023-08-24T12:03:13;101360.60;;;26.87;40.55
76551;BME280;68768;53.156;18.164;2023-08-24T12:05:39;101361.35;;;26.93;40.42
76551;BME280;68768;53.156;18.164;2023-08-24T12:08:06;101356.06;;;26.97;40.09
76551;BME280;68768;53.156;18.164;2023-08-24T12:10:33;101355.20;;;26.98;40.35
76551;BME280;68768;53.156;18.164;2023-08-24T12:13:05;101359.13;;;27.03;40.19
76551;BME280;68768;53.156;18.164;2023-08-24T12:15:36;101349.09;;;27.03;40.08
76551;BME280;68768;53.156;18.164;2023-08-24T12:18:12;101349.44;;;27.01;40.31
76551;BME280;68768;53.156;18.164;2023-08-24T12:20:42;101351.70;;;27.02;40.24
76551;BME280;68768;53.156;18.164;2023-08-24T12:23:10;101343.83;;;27.04;40.17
76551;BME280;68768;53.156;18.164;2023-08-24T12:25:43;101338.31;;;27.07;40.39
76551;BME280;68768;53.156;18.164;2023-08-24T12:28:15;101333.71;;;27.13;40.34
76551;BME280;68768;53.156;18.164;2023-08-24T12:30:49;101332.55;;;27.16;40.25
76551;BME280;68768;53.156;18.164;2023-08-24T12:33:29;101335.63;;;27.08;39.97
76551;BME280;68768;53.156;18.164;2023-08-24T12:35:56;101337.52;;;26.94;40.13
76551;BME280;68768;53.156;18.164;2023-08-24T12:38:26;101334.59;;;26.85;40.20
76551;BME280;68768;53.156;18.164;2023-08-24T12:40:53;101334.96;;;26.76;40.36
76551;BME280;68768;53.156;18.164;2023-08-24T12:43:19;101328.19;;;26.70;40.49
76551;BME280;68768;53.156;18.164;2023-08-24T12:45:45;101327.58;;;26.67;40.65
76551;BME280;68768;53.156;18.164;2023-08-24T12:48:12;101326.71;;;26.65;40.65
76551;BME280;68768;53.156;18.164;2023-08-24T12:50:38;101321.74;;;26.64;40.53
76551;BME280;68768;53.156;18.164;2023-08-24T12:53:05;101321.11;;;26.63;40.63
76551;BME280;68768;53.156;18.164;2023-08-24T12:55:36;101316.83;;;26.66;40.79
76551;BME280;68768;53.156;18.164;2023-08-24T12:58:02;101313.64;;;26.72;40.67
76551;BME280;68768;53.156;18.164;2023-08-24T13:00:29;101311.00;;;26.75;40.20